Time;durP1;ratioP1;P1;durP2;ratioP2;P2;SDS_P1;SDS_P2;PMS_P1;PMS_P2;Temp;Humidity;BMP_temperature;BMP_pressure;BME280_temperature;BME280_humidity;BME280_pressure;Samples;Min_cycle;Max_cycle;Signal;HPM_P1;HPM_P2
2020/12/04 00:00:18;;;;;;;11.50;9.43;;;5.00;97.10;;;;;;5088966;28;20679;-60
2020/12/04 00:02:44;;;;;;;11.40;10.03;;;5.00;97.00;;;;;;5088137;28;20184;-58
2020/12/04 00:05:09;;;;;;;16.07;10.20;;;5.20;97.00;;;;;;5076959;28;20208;-60
2020/12/04 00:07:35;;;;;;;11.13;8.87;;;5.00;96.90;;;;;;5089387;28;20176;-60
2020/12/04 00:10:01;;;;;;;12.50;9.57;;;5.00;96.20;;;;;;5088426;28;20585;-60
2020/12/04 00:12:26;;;;;;;11.60;9.53;;;5.00;96.40;;;;;;5089118;28;20185;-60
2020/12/04 00:14:52;;;;;;;11.63;9.73;;;4.90;96.80;;;;;;5088115;28;20686;-60
2020/12/04 00:17:18;;;;;;;10.53;9.13;;;5.10;96.10;;;;;;5088798;28;20191;-60
2020/12/04 00:19:43;;;;;;;12.07;9.23;;;4.80;95.80;;;;;;5086276;28;20246;-60
2020/12/04 00:22:09;;;;;;;15.13;8.93;;;5.10;95.90;;;;;;5080368;28;20193;-60
2020/12/04 00:24:35;;;;;;;12.80;9.47;;;4.80;96.70;;;;;;5088260;28;20701;-60
2020/12/04 00:27:00;;;;;;;11.32;9.43;;;4.80;96.70;;;;;;5088631;28;20547;-60
2020/12/04 00:29:27;;;;;;;10.27;8.80;;;4.80;96.80;;;;;;5087449;28;20216;-61
2020/12/04 00:31:54;;;;;;;11.95;9.50;;;4.90;96.50;;;;;;5088455;28;20586;-60
2020/12/04 00:34:20;;;;;;;10.68;9.23;;;4.80;96.70;;;;;;5088599;28;20188;-60
2020/12/04 00:36:47;;;;;;;13.55;9.68;;;4.70;96.60;;;;;;5088982;28;20254;-58
2020/12/04 00:39:13;;;;;;;12.73;9.15;;;4.90;96.50;;;;;;5086144;28;20180;-58
2020/12/04 00:41:38;;;;;;;13.30;11.10;;;4.90;96.70;;;;;;5088617;28;20180;-60
2020/12/04 00:44:04;;;;;;;13.10;9.33;;;4.80;96.40;;;;;;5088127;28;20497;-60
2020/12/04 00:46:30;;;;;;;11.83;9.10;;;4.60;96.10;;;;;;5083866;28;20704;-60
2020/12/04 00:48:55;;;;;;;15.23;9.60;;;4.80;95.70;;;;;;5085053;28;20204;-60
2020/12/04 00:51:21;;;;;;;11.83;9.07;;;4.90;95.90;;;;;;5082094;28;20193;-60
2020/12/04 00:53:46;;;;;;;12.40;9.57;;;5.00;96.20;;;;;;5085077;28;20186;-60
2020/12/04 00:56:12;;;;;;;11.67;9.73;;;4.90;95.60;;;;;;5080884;28;20188;-58
2020/12/04 00:58:37;;;;;;;10.30;8.47;;;4.60;95.50;;;;;;5088036;28;20214;-60
2020/12/04 01:01:03;;;;;;;11.10;9.43;;;4.60;95.60;;;;;;5088219;28;20310;-60
2020/12/04 01:03:32;;;;;;;13.25;9.57;;;4.60;95.60;;;;;;5088069;28;20189;-60
2020/12/04 01:05:58;;;;;;;11.80;8.55;;;4.80;95.90;;;;;;5087351;28;20206;-60
2020/12/04 01:08:24;;;;;;;11.73;8.83;;;4.80;95.50;;;;;;5086401;28;20217;-60
2020/12/04 01:10:49;;;;;;;13.17;10.10;;;4.90;95.20;;;;;;5086831;28;20233;-60
2020/12/04 01:13:15;;;;;;;11.53;8.50;;;4.80;95.10;;;;;;5080909;28;20203;-58
2020/12/04 01:15:40;;;;;;;11.30;9.43;;;4.60;95.00;;;;;;5087526;28;20196;-60
2020/12/04 01:18:06;;;;;;;12.13;9.03;;;4.70;95.40;;;;;;5087870;28;20198;-60
2020/12/04 01:20:33;;;;;;;12.80;10.00;;;4.70;96.10;;;;;;5088049;28;20269;-60
2020/12/04 01:22:58;;;;;;;14.02;9.77;;;4.70;96.40;;;;;;5088455;28;20184;-60
2020/12/04 01:25:24;;;;;;;12.30;9.70;;;4.50;96.50;;;;;;5087709;28;20224;-60
2020/12/04 01:27:49;;;;;;;15.10;10.00;;;4.70;96.60;;;;;;5087389;28;20270;-61
2020/12/04 01:30:15;;;;;;;10.50;9.03;;;4.90;96.60;;;;;;5085430;28;20245;-60
2020/12/04 01:32:41;;;;;;;14.50;9.70;;;4.60;96.60;;;;;;5088026;28;20335;-57
2020/12/04 01:35:06;;;;;;;12.37;9.63;;;4.60;96.80;;;;;;5087138;28;20204;-60
2020/12/04 01:37:32;;;;;;;13.07;9.50;;;4.70;96.40;;;;;;5088061;28;20184;-60
2020/12/04 01:39:57;;;;;;;14.30;10.13;;;5.00;97.00;;;;;;5087667;28;20200;-58
2020/12/04 01:42:23;;;;;;;13.93;10.33;;;4.50;96.50;;;;;;5087401;28;20654;-58
2020/12/04 01:44:49;;;;;;;16.70;11.03;;;4.70;97.10;;;;;;5087077;28;20223;-58
2020/12/04 01:47:17;;;;;;;14.73;9.77;;;4.60;97.10;;;;;;5087151;28;20198;-60
2020/12/04 01:49:43;;;;;;;15.80;10.38;;;4.70;97.30;;;;;;5086246;28;20688;-60
2020/12/04 01:52:09;;;;;;;14.00;10.15;;;4.70;97.30;;;;;;5087941;28;20200;-60
2020/12/04 01:54:35;;;;;;;15.53;10.43;;;4.60;97.00;;;;;;5087372;28;20742;-58
2020/12/04 01:57:04;;;;;;;16.23;10.83;;;4.60;97.20;;;;;;5087753;28;20277;-60
2020/12/04 01:59:29;;;;;;;14.00;10.50;;;4.80;97.20;;;;;;5087436;28;20434;-60
2020/12/04 02:02:21;;;;;;;13.10;10.20;;;4.90;97.30;;;;;;5089609;28;20184;-60
2020/12/04 02:04:48;;;;;;;13.30;9.40;;;4.80;97.00;;;;;;5102836;28;20213;-58
2020/12/04 02:07:23;;;;;;;13.48;10.13;;;4.60;97.10;;;;;;5086445;28;20254;-61
2020/12/04 02:09:54;;;;;;;14.93;11.77;;;5.00;96.80;;;;;;5082195;28;20216;-60
2020/12/04 02:12:23;;;;;;;15.85;10.98;;;4.70;96.90;;;;;;5087880;28;20213;-60
2020/12/04 02:14:49;;;;;;;14.00;9.73;;;4.50;96.60;;;;;;5087028;28;20681;-59
2020/12/04 02:17:15;;;;;;;11.23;9.43;;;4.70;96.70;;;;;;5087421;28;20671;-61
2020/12/04 02:19:44;;;;;;;12.90;9.57;;;4.50;96.50;;;;;;5089878;28;20246;-60
2020/12/04 02:22:13;;;;;;;14.18;9.82;;;4.70;96.70;;;;;;5090883;28;20678;-60
2020/12/04 02:24:40;;;;;;;15.23;10.70;;;4.70;96.70;;;;;;5087298;28;20315;-60
2020/12/04 02:27:13;;;;;;;16.13;10.88;;;4.70;97.20;;;;;;5085051;28;20191;-60
2020/12/04 02:29:39;;;;;;;14.55;9.63;;;4.70;97.20;;;;;;5090105;28;20201;-61
2020/12/04 02:32:10;;;;;;;15.95;10.27;;;4.60;97.00;;;;;;5091057;28;20180;-61
2020/12/04 02:34:35;;;;;;;12.70;9.68;;;4.50;96.80;;;;;;5090406;28;20685;-60
2020/12/04 02:37:01;;;;;;;13.83;10.03;;;4.50;97.10;;;;;;5091023;28;20190;-57
2020/12/04 02:39:27;;;;;;;15.17;10.80;;;4.50;97.00;;;;;;5090288;28;20189;-60
2020/12/04 02:41:52;;;;;;;12.50;10.47;;;4.50;96.60;;;;;;5091017;28;20288;-60
2020/12/04 02:44:18;;;;;;;13.60;10.73;;;4.70;97.20;;;;;;5090133;28;20208;-60
2020/12/04 02:46:47;;;;;;;14.37;10.87;;;4.60;96.90;;;;;;5089415;28;20701;-57
2020/12/04 02:49:12;;;;;;;16.35;11.10;;;4.50;97.20;;;;;;5089569;28;20213;-57
2020/12/04 02:51:43;;;;;;;14.70;10.63;;;4.30;97.40;;;;;;5090693;28;20184;-61
2020/12/04 02:54:08;;;;;;;15.07;10.80;;;4.50;97.70;;;;;;5081322;28;20210;-60
2020/12/04 02:56:37;;;;;;;13.80;10.50;;;4.60;97.60;;;;;;5094953;28;20596;-60
2020/12/04 02:59:03;;;;;;;12.60;10.77;;;4.70;97.60;;;;;;5090413;28;20700;-60
2020/12/04 03:01:29;;;;;;;12.82;10.43;;;4.50;97.80;;;;;;5090174;28;20674;-60
2020/12/04 03:03:55;;;;;;;13.57;11.40;;;4.80;97.80;;;;;;5090146;28;20242;-61
2020/12/04 03:06:20;;;;;;;16.50;11.57;;;4.70;97.90;;;;;;5089476;28;20200;-61
2020/12/04 03:08:50;;;;;;;13.33;10.50;;;4.50;97.70;;;;;;5089034;28;20227;-60
2020/12/04 03:11:20;;;;;;;13.77;10.35;;;4.80;98.10;;;;;;5090033;28;20408;-60
2020/12/04 03:13:46;;;;;;;14.07;10.45;;;4.50;98.00;;;;;;5090025;28;20180;-58
2020/12/04 03:16:12;;;;;;;13.80;10.20;;;4.60;97.90;;;;;;5089938;28;20191;-60
2020/12/04 03:18:38;;;;;;;14.73;10.77;;;4.60;97.90;;;;;;5090109;28;20560;-61
2020/12/04 03:21:03;;;;;;;15.93;10.67;;;4.30;98.10;;;;;;5091133;28;20707;-60
2020/12/04 03:23:29;;;;;;;15.13;10.70;;;4.50;98.10;;;;;;5090144;28;20189;-60
2020/12/04 03:25:55;;;;;;;14.00;10.17;;;4.30;98.50;;;;;;5089168;28;20480;-60
2020/12/04 03:28:21;;;;;;;13.27;10.27;;;4.40;98.60;;;;;;5087198;28;20656;-60
2020/12/04 03:30:47;;;;;;;14.75;11.38;;;4.60;98.60;;;;;;5088469;28;20517;-60
2020/12/04 03:33:12;;;;;;;15.07;11.10;;;4.50;98.20;;;;;;5089622;28;20289;-60
2020/12/04 03:35:38;;;;;;;13.23;10.50;;;4.50;98.50;;;;;;5088322;28;20758;-60
2020/12/04 03:38:04;;;;;;;13.50;9.90;;;4.60;98.00;;;;;;5089429;28;20723;-60
2020/12/04 03:40:29;;;;;;;17.70;10.27;;;4.50;98.00;;;;;;5089586;28;20222;-61
2020/12/04 03:42:55;;;;;;;15.70;11.20;;;4.50;97.70;;;;;;5089390;28;20659;-60
2020/12/04 03:45:20;;;;;;;18.23;11.00;;;3.90;97.40;;;;;;5087889;28;20386;-58
2020/12/04 03:47:46;;;;;;;18.03;11.67;;;4.50;97.50;;;;;;5088117;28;20178;-58
2020/12/04 03:50:12;;;;;;;14.53;11.30;;;4.60;97.80;;;;;;5092991;28;20208;-58
2020/12/04 03:52:37;;;;;;;18.30;11.00;;;4.50;97.90;;;;;;5089528;28;20238;-58
2020/12/04 03:55:03;;;;;;;15.27;10.87;;;4.40;97.80;;;;;;5088935;28;20204;-58
2020/12/04 03:57:29;;;;;;;12.83;9.90;;;4.60;97.70;;;;;;5089568;28;20551;-58
2020/12/04 03:59:55;;;;;;;18.92;12.27;;;4.60;98.30;;;;;;5088951;28;20202;-59
2020/12/04 04:02:20;;;;;;;12.50;10.10;;;4.60;97.80;;;;;;5087692;28;20184;-58
2020/12/04 04:04:46;;;;;;;15.80;11.20;;;4.50;97.60;;;;;;5088557;28;20741;-58
2020/12/04 04:07:12;;;;;;;13.13;9.37;;;4.60;97.80;;;;;;5088192;28;20480;-58
2020/12/04 04:09:37;;;;;;;14.27;9.93;;;4.90;97.90;;;;;;5087896;28;20204;-59
2020/12/04 04:12:03;;;;;;;15.13;10.07;;;4.70;97.60;;;;;;5088990;28;20641;-59
2020/12/04 04:14:28;;;;;;;13.67;10.47;;;4.70;97.90;;;;;;5088754;28;20284;-58
2020/12/04 04:16:54;;;;;;;13.53;9.87;;;4.70;97.80;;;;;;5089022;28;20598;-59
2020/12/04 04:19:20;;;;;;;13.80;9.90;;;5.00;98.10;;;;;;5081832;28;20197;-58
2020/12/04 04:21:48;;;;;;;14.87;10.27;;;4.60;97.90;;;;;;5088920;28;20275;-58
2020/12/04 04:24:14;;;;;;;13.77;9.75;;;4.80;98.00;;;;;;5088380;28;20342;-58
2020/12/04 04:26:40;;;;;;;11.90;9.87;;;4.60;98.00;;;;;;5087867;28;20677;-58
2020/12/04 04:29:06;;;;;;;11.80;9.45;;;5.00;98.00;;;;;;5087006;28;20512;-58
2020/12/04 04:31:31;;;;;;;15.07;9.80;;;4.90;98.30;;;;;;5088290;28;20278;-58
2020/12/04 04:33:57;;;;;;;16.00;10.20;;;4.70;98.50;;;;;;5088217;28;20700;-58
2020/12/04 04:36:23;;;;;;;13.10;9.80;;;4.50;98.70;;;;;;5089760;28;20760;-58
2020/12/04 04:38:48;;;;;;;16.53;10.57;;;4.70;98.60;;;;;;5088518;28;20176;-58
2020/12/04 04:41:14;;;;;;;13.57;10.13;;;4.60;98.50;;;;;;5087896;28;20196;-58
2020/12/04 04:43:40;;;;;;;14.07;9.30;;;4.70;98.70;;;;;;5088462;28;20184;-58
2020/12/04 04:46:47;;;;;;;19.37;12.10;;;4.60;99.00;;;;;;5087443;28;20508;-58
2020/12/04 04:49:27;;;;;;;13.30;10.55;;;4.70;99.10;;;;;;5061036;28;20621;-58
2020/12/04 04:51:56;;;;;;;13.18;10.57;;;5.00;98.70;;;;;;5088091;28;20514;-58
2020/12/04 04:54:23;;;;;;;13.82;9.52;;;4.70;98.50;;;;;;5082929;28;20689;-58
2020/12/04 04:56:50;;;;;;;13.90;10.93;;;4.70;99.00;;;;;;5088198;28;20195;-59
2020/12/04 04:59:22;;;;;;;12.27;9.15;;;4.80;98.80;;;;;;5088040;28;20184;-59
2020/12/04 05:01:49;;;;;;;22.33;10.60;;;4.60;98.80;;;;;;5088013;28;20559;-58
2020/12/04 05:04:16;;;;;;;10.75;8.88;;;4.70;99.10;;;;;;5088093;28;20208;-58
2020/12/04 05:06:42;;;;;;;17.40;10.40;;;4.70;99.30;;;;;;5087241;28;20532;-58
2020/12/04 05:09:14;;;;;;;13.63;9.47;;;4.80;99.30;;;;;;5086413;28;20212;-58
2020/12/04 05:11:54;;;;;;;12.30;9.38;;;4.80;98.80;;;;;;5088119;28;20432;-58
2020/12/04 05:14:24;;;;;;;12.40;9.95;;;4.70;98.70;;;;;;5087546;28;20251;-58
2020/12/04 05:16:55;;;;;;;13.70;9.50;;;4.70;98.70;;;;;;5088084;28;20185;-58
2020/12/04 05:19:36;;;;;;;13.35;9.95;;;4.90;98.70;;;;;;5087962;28;20271;-58
2020/12/04 05:22:16;;;;;;;13.07;9.93;;;4.80;98.80;;;;;;5088267;28;20598;-58
2020/12/04 05:24:43;;;;;;;14.30;10.98;;;4.70;99.10;;;;;;5087315;28;20656;-58
2020/12/04 05:27:27;;;;;;;15.02;9.80;;;4.50;98.90;;;;;;5086644;28;20195;-59
2020/12/04 05:29:56;;;;;;;12.60;9.82;;;4.60;99.70;;;;;;5084250;28;20251;-58
2020/12/04 05:32:23;;;;;;;10.90;9.60;;;4.70;99.00;;;;;;5087907;28;20240;-59
2020/12/04 05:34:50;;;;;;;11.82;9.52;;;4.90;99.50;;;;;;5087033;28;20201;-59
2020/12/04 05:37:19;;;;;;;14.75;9.98;;;4.70;99.10;;;;;;5081394;28;20652;-58
2020/12/04 05:39:49;;;;;;;12.82;10.00;;;4.80;99.40;;;;;;5087289;28;20527;-58
2020/12/04 05:42:36;;;;;;;11.70;8.00;;;4.70;99.50;;;;;;5087212;28;20209;-59
2020/12/04 05:45:04;;;;;;;11.50;8.80;;;4.80;99.90;;;;;;5085638;28;20204;-58
2020/12/04 05:47:41;;;;;;;16.80;10.35;;;4.80;99.10;;;;;;5087342;28;20271;-59
2020/12/04 05:50:10;;;;;;;10.88;8.80;;;4.60;99.40;;;;;;5087310;28;20215;-59
2020/12/04 05:52:37;;;;;;;14.68;9.70;;;5.00;99.70;;;;;;5087546;28;20195;-59
2020/12/04 05:55:04;;;;;;;14.40;10.38;;;5.00;99.70;;;;;;5090622;28;20233;-59
2020/12/04 05:57:34;;;;;;;14.50;9.48;;;5.00;99.40;;;;;;5088355;28;20188;-58
2020/12/04 06:00:00;;;;;;;13.10;9.13;;;4.60;99.40;;;;;;5105656;28;20194;-59
2020/12/04 06:02:25;;;;;;;12.03;9.30;;;4.70;99.60;;;;;;5088808;28;20188;-58
2020/12/04 06:04:52;;;;;;;13.47;8.90;;;5.00;99.20;;;;;;5090628;28;20252;-59
2020/12/04 06:07:24;;;;;;;10.30;7.75;;;4.80;99.10;;;;;;5088624;28;20243;-59
2020/12/04 06:09:58;;;;;;;12.20;8.98;;;5.00;98.90;;;;;;5089492;28;20365;-59
2020/12/04 06:12:24;;;;;;;10.52;8.27;;;5.20;98.80;;;;;;5082367;28;20223;-59
2020/12/04 06:14:51;;;;;;;11.98;8.63;;;5.30;99.10;;;;;;5089730;28;20240;-58
2020/12/04 06:17:16;;;;;;;11.40;9.23;;;5.10;98.50;;;;;;5083272;28;20592;-57
2020/12/04 06:19:44;;;;;;;10.30;7.43;;;5.30;98.90;;;;;;5087826;28;20279;-59
2020/12/04 06:22:17;;;;;;;12.15;8.40;;;5.30;98.90;;;;;;5090671;28;20442;-59
2020/12/04 06:24:52;;;;;;;15.07;10.45;;;5.20;98.30;;;;;;5088836;28;20689;-59
2020/12/04 06:27:38;;;;;;;10.55;8.60;;;5.30;98.90;;;;;;5088490;28;20832;-59
2020/12/04 06:30:05;;;;;;;11.85;8.20;;;5.00;98.80;;;;;;5075146;28;20220;-59
2020/12/04 06:32:57;;;;;;;9.15;7.65;;;5.10;98.90;;;;;;5089011;28;20232;-58
2020/12/04 06:35:43;;;;;;;9.93;7.40;;;5.30;98.00;;;;;;5081959;28;20224;-59
2020/12/04 06:38:38;;;;;;;10.13;8.05;;;5.50;98.00;;;;;;5085511;28;20180;-59
2020/12/04 06:41:25;;;;;;;13.43;8.82;;;5.30;97.10;;;;;;5089175;28;20181;-59
2020/12/04 06:43:57;;;;;;;11.85;9.10;;;5.20;96.80;;;;;;5084753;28;20188;-59
2020/12/04 06:46:31;;;;;;;11.98;8.38;;;5.30;97.10;;;;;;5087180;28;20476;-60
2020/12/04 06:49:34;;;;;;;12.50;7.55;;;5.30;96.80;;;;;;5089938;28;20381;-60
2020/12/04 06:52:18;;;;;;;14.48;9.77;;;5.80;96.70;;;;;;5086723;28;20279;-58
2020/12/04 06:54:51;;;;;;;14.23;10.07;;;5.40;96.20;;;;;;5086226;28;20208;-57
2020/12/04 06:57:18;;;;;;;14.73;9.13;;;5.40;96.30;;;;;;5087894;28;20217;-56
2020/12/04 06:59:44;;;;;;;11.82;9.20;;;5.30;96.00;;;;;;5088512;28;20206;-57
2020/12/04 07:02:11;;;;;;;13.90;9.55;;;5.40;95.90;;;;;;5088995;28;20673;-58
2020/12/04 07:04:46;;;;;;;15.15;9.10;;;4.90;95.70;;;;;;5085961;28;20213;-59
2020/12/04 07:07:20;;;;;;;12.32;9.40;;;5.40;95.70;;;;;;5088316;28;21198;-58
2020/12/04 07:09:56;;;;;;;13.55;8.50;;;5.70;95.50;;;;;;5085975;28;20238;-59
2020/12/04 07:12:23;;;;;;;12.30;8.95;;;5.60;95.50;;;;;;5089502;28;20485;-56
2020/12/04 07:14:50;;;;;;;13.18;9.88;;;5.50;95.20;;;;;;5082910;28;20198;-58
2020/12/04 07:17:18;;;;;;;15.60;9.75;;;5.90;95.60;;;;;;5086765;28;20581;-58
2020/12/04 07:19:45;;;;;;;12.68;9.60;;;5.50;95.60;;;;;;5088085;28;20277;-59
2020/12/04 07:22:11;;;;;;;14.73;9.23;;;5.70;95.90;;;;;;5087873;28;20184;-58
2020/12/04 07:24:37;;;;;;;15.33;10.10;;;5.60;95.60;;;;;;5081002;28;20302;-59
2020/12/04 07:27:04;;;;;;;12.30;8.50;;;5.70;95.90;;;;;;5088914;28;20183;-58
2020/12/04 07:29:30;;;;;;;13.73;9.10;;;5.40;95.70;;;;;;5088976;28;20225;-62
2020/12/04 07:31:56;;;;;;;15.00;11.13;;;4.80;95.60;;;;;;5086024;28;20239;-59
2020/12/04 07:34:24;;;;;;;17.03;11.30;;;5.20;95.60;;;;;;5087547;28;20208;-60
2020/12/04 07:36:52;;;;;;;11.25;9.40;;;5.10;95.80;;;;;;5086623;28;20520;-60
2020/12/04 07:39:29;;;;;;;15.30;10.00;;;5.40;95.90;;;;;;5080633;28;20189;-60
2020/12/04 07:41:56;;;;;;;13.18;9.20;;;5.60;96.00;;;;;;5096911;28;20199;-60
2020/12/04 07:44:36;;;;;;;16.00;10.65;;;5.70;96.00;;;;;;5085531;28;20573;-60
2020/12/04 07:47:15;;;;;;;13.15;10.05;;;5.60;95.60;;;;;;5103885;28;20267;-59
2020/12/04 07:49:53;;;;;;;16.77;10.85;;;5.60;95.40;;;;;;5098028;28;20209;-59
2020/12/04 07:52:25;;;;;;;16.63;10.18;;;5.40;95.60;;;;;;5084134;28;20184;-59
2020/12/04 07:54:55;;;;;;;14.93;9.35;;;5.50;95.60;;;;;;5088269;28;20201;-60
2020/12/04 07:57:24;;;;;;;12.35;10.13;;;5.70;96.10;;;;;;5084323;28;20178;-60
2020/12/04 07:59:54;;;;;;;16.38;10.43;;;5.60;95.60;;;;;;5087824;28;20188;-60
2020/12/04 08:02:25;;;;;;;14.52;10.05;;;5.90;95.50;;;;;;5087901;28;20193;-59
2020/12/04 08:04:51;;;;;;;14.10;10.40;;;5.80;95.30;;;;;;5085657;28;20244;-60
2020/12/04 08:07:17;;;;;;;14.77;10.98;;;5.70;95.30;;;;;;5087998;28;20229;-59
2020/12/04 08:09:44;;;;;;;14.50;9.93;;;5.60;95.50;;;;;;5088272;28;20378;-60
2020/12/04 08:12:25;;;;;;;14.05;10.90;;;5.60;95.40;;;;;;5088026;28;20438;-60
2020/12/04 08:14:55;;;;;;;16.20;11.30;;;5.80;95.40;;;;;;5086018;28;20206;-60
2020/12/04 08:17:23;;;;;;;16.00;10.75;;;5.70;95.50;;;;;;5085839;28;20595;-60
2020/12/04 08:19:50;;;;;;;15.55;10.00;;;5.60;95.50;;;;;;5087462;28;20308;-59
2020/12/04 08:22:16;;;;;;;13.15;11.05;;;5.80;95.40;;;;;;5088130;28;20186;-59
2020/12/04 08:25:03;;;;;;;19.00;10.40;;;5.80;95.70;;;;;;5086762;28;20619;-60
2020/12/04 08:27:56;;;;;;;17.42;12.27;;;5.80;96.00;;;;;;5086671;28;20229;-59
2020/12/04 08:30:23;;;;;;;17.08;10.00;;;5.80;95.90;;;;;;5085275;28;20465;-59
2020/12/04 08:32:58;;;;;;;15.98;10.48;;;5.80;95.70;;;;;;5087996;28;20594;-59
2020/12/04 08:35:38;;;;;;;16.80;10.18;;;5.80;95.30;;;;;;5087547;28;20216;-60
2020/12/04 08:38:12;;;;;;;13.93;10.35;;;6.10;95.30;;;;;;5087907;28;20246;-60
2020/12/04 08:40:46;;;;;;;15.38;10.65;;;5.70;95.40;;;;;;5080189;28;20511;-59
2020/12/04 08:43:23;;;;;;;17.15;10.82;;;6.00;95.80;;;;;;5087648;28;20279;-59
2020/12/04 08:45:54;;;;;;;15.98;9.90;;;5.50;95.00;;;;;;5102858;28;20260;-59
2020/12/04 08:48:24;;;;;;;15.00;10.40;;;6.10;95.50;;;;;;5087477;28;20600;-59
2020/12/04 08:50:55;;;;;;;21.98;12.15;;;6.30;95.50;;;;;;5086080;28;20185;-59
2020/12/04 08:53:22;;;;;;;17.35;10.98;;;5.70;95.90;;;;;;5099957;28;20183;-60
2020/12/04 08:55:49;;;;;;;17.00;10.60;;;6.00;97.30;;;;;;5087825;28;20205;-59
2020/12/04 08:58:17;;;;;;;19.23;11.10;;;6.40;96.40;;;;;;5087826;28;20187;-59
2020/12/04 09:00:47;;;;;;;17.77;10.63;;;6.20;96.60;;;;;;5087335;28;20184;-59
2020/12/04 09:03:13;;;;;;;16.83;12.35;;;6.30;96.80;;;;;;5087398;28;20554;-59
2020/12/04 09:05:39;;;;;;;17.85;11.00;;;6.30;95.20;;;;;;5088555;28;20209;-59
2020/12/04 09:08:06;;;;;;;14.00;11.47;;;6.40;95.10;;;;;;5082673;28;20187;-59
2020/12/04 09:10:32;;;;;;;16.38;11.60;;;6.60;94.90;;;;;;5087041;28;20172;-59
2020/12/04 09:12:58;;;;;;;12.85;10.90;;;6.00;94.30;;;;;;5087086;28;20207;-59
2020/12/04 09:15:26;;;;;;;14.82;10.13;;;6.50;94.20;;;;;;5087516;28;20214;-59
2020/12/04 09:17:52;;;;;;;12.10;9.80;;;6.60;94.00;;;;;;5087546;28;20184;-59
2020/12/04 09:20:18;;;;;;;12.57;9.73;;;7.00;93.80;;;;;;5086977;28;20186;-59
2020/12/04 09:22:44;;;;;;;14.33;10.87;;;6.70;93.50;;;;;;5083249;28;20228;-59
2020/12/04 09:25:12;;;;;;;15.02;10.98;;;7.00;93.70;;;;;;5082617;28;20484;-59
2020/12/04 09:27:39;;;;;;;15.05;11.38;;;7.20;93.60;;;;;;5085593;28;20668;-58
2020/12/04 09:30:06;;;;;;;13.50;10.57;;;6.80;93.70;;;;;;5084339;28;20569;-58
2020/12/04 09:32:32;;;;;;;15.45;10.70;;;7.00;93.80;;;;;;5090012;28;20184;-57
2020/12/04 09:34:58;;;;;;;14.98;10.02;;;7.00;93.30;;;;;;5092452;28;20294;-58
2020/12/04 09:37:27;;;;;;;14.20;10.67;;;6.90;93.50;;;;;;5090561;28;20274;-58
2020/12/04 09:39:59;;;;;;;28.27;15.75;;;6.70;93.70;;;;;;5088112;28;20317;-59
2020/12/04 09:42:26;;;;;;;14.00;10.55;;;6.90;93.50;;;;;;5088418;28;20199;-58
2020/12/04 09:44:53;;;;;;;14.05;9.95;;;6.00;93.00;;;;;;5088823;28;20261;-58
2020/12/04 09:47:19;;;;;;;14.45;11.15;;;6.70;93.80;;;;;;5087605;28;20218;-58
2020/12/04 09:49:45;;;;;;;14.10;10.03;;;6.50;93.80;;;;;;5089428;28;20656;-60
2020/12/04 09:52:13;;;;;;;16.52;10.50;;;6.70;93.20;;;;;;5084131;28;20184;-60
2020/12/04 09:54:40;;;;;;;16.38;10.90;;;6.60;93.40;;;;;;5087845;28;20709;-59
2020/12/04 09:57:08;;;;;;;18.88;10.57;;;6.80;93.50;;;;;;5089517;28;20238;-60
2020/12/04 09:59:34;;;;;;;14.93;9.82;;;6.60;93.30;;;;;;5089154;28;20187;-59
2020/12/04 10:02:01;;;;;;;11.55;9.27;;;6.90;93.30;;;;;;5087146;28;20659;-60
2020/12/04 10:04:27;;;;;;;15.77;10.30;;;7.40;93.10;;;;;;5085810;28;20679;-61
2020/12/04 10:06:54;;;;;;;13.10;8.95;;;6.90;92.20;;;;;;5090761;28;20283;-58
2020/12/04 10:09:21;;;;;;;13.20;9.20;;;7.10;92.20;;;;;;5089317;28;20250;-56
2020/12/04 10:11:47;;;;;;;16.20;10.90;;;7.10;92.50;;;;;;5087702;28;20192;-57
2020/12/04 10:14:14;;;;;;;13.35;9.82;;;7.10;92.20;;;;;;5090118;28;20601;-58
2020/12/04 10:16:43;;;;;;;13.73;9.40;;;6.90;92.60;;;;;;5089743;28;20655;-59
2020/12/04 10:19:11;;;;;;;17.33;11.13;;;7.40;92.90;;;;;;5103492;28;20236;-59
2020/12/04 10:21:37;;;;;;;15.60;10.48;;;7.20;92.80;;;;;;5086718;28;20180;-59
2020/12/04 10:24:04;;;;;;;10.47;8.43;;;7.30;92.90;;;;;;5088709;28;20271;-57
2020/12/04 10:26:30;;;;;;;13.85;10.00;;;7.10;92.90;;;;;;5085508;28;20841;-58
2020/12/04 10:28:56;;;;;;;15.83;10.50;;;7.10;92.70;;;;;;5087964;28;20283;-59
2020/12/04 10:31:21;;;;;;;14.03;10.10;;;7.20;92.60;;;;;;5088599;28;20191;-59
2020/12/04 10:33:47;;;;;;;18.83;9.77;;;6.90;92.90;;;;;;5085992;28;20189;-59
2020/12/04 10:36:13;;;;;;;13.63;10.07;;;6.70;92.70;;;;;;5084225;28;20649;-59
2020/12/04 10:38:39;;;;;;;11.50;9.88;;;7.00;92.40;;;;;;5086155;28;20184;-58
2020/12/04 10:41:05;;;;;;;11.50;8.90;;;7.20;92.50;;;;;;5077969;28;20353;-58
2020/12/04 10:43:31;;;;;;;11.33;8.70;;;7.10;92.20;;;;;;5084423;28;20272;-56
2020/12/04 10:45:56;;;;;;;17.50;9.77;;;7.20;92.00;;;;;;5088131;28;20357;-58
2020/12/04 10:48:22;;;;;;;16.47;10.23;;;7.00;92.50;;;;;;5087821;28;20247;-59
2020/12/04 10:50:48;;;;;;;15.77;10.53;;;7.10;93.00;;;;;;5088630;28;20195;-58
2020/12/04 10:53:14;;;;;;;14.35;9.93;;;7.30;92.80;;;;;;5087123;28;20191;-58
2020/12/04 10:55:44;;;;;;;13.05;10.10;;;7.20;92.70;;;;;;5105911;28;20212;-59
2020/12/04 10:58:11;;;;;;;18.15;10.18;;;7.30;92.70;;;;;;5077223;28;20215;-59
2020/12/04 11:00:36;;;;;;;12.90;10.68;;;7.20;92.40;;;;;;5080966;28;20290;-59
2020/12/04 11:03:32;;;;;;;15.13;10.30;;;7.30;92.70;;;;;;5085454;28;20279;-60
2020/12/04 11:05:51;;;;;;;11.82;10.00;;;7.20;92.60;;;;;;5088952;28;20456;-60
2020/12/04 11:08:17;;;;;;;13.10;9.10;;;7.70;92.60;;;;;;5085594;28;20184;-59
2020/12/04 11:10:44;;;;;;;15.50;10.10;;;7.80;92.20;;;;;;5089449;28;20181;-58
2020/12/04 11:13:09;;;;;;;11.35;10.15;;;6.80;91.70;;;;;;5089419;28;20235;-59
2020/12/04 11:15:36;;;;;;;12.93;9.30;;;7.40;92.30;;;;;;5090238;28;20196;-58
2020/12/04 11:18:02;;;;;;;11.07;9.38;;;7.50;92.40;;;;;;5083990;28;20188;-58
2020/12/04 11:20:31;;;;;;;13.23;9.93;;;7.20;92.10;;;;;;5083091;28;20704;-61
2020/12/04 11:22:56;;;;;;;13.10;10.10;;;7.30;92.20;;;;;;5087927;28;20195;-60
2020/12/04 11:25:22;;;;;;;11.60;8.70;;;7.60;92.50;;;;;;5088419;28;20883;-59
2020/12/04 11:27:49;;;;;;;12.70;9.47;;;7.50;91.80;;;;;;5088272;28;20271;-59
2020/12/04 11:30:17;;;;;;;11.10;9.10;;;7.20;91.90;;;;;;5088734;28;20469;-59
2020/12/04 11:32:44;;;;;;;15.55;9.52;;;7.70;91.50;;;;;;5089027;28;20245;-59
2020/12/04 11:35:11;;;;;;;12.98;9.05;;;7.60;91.70;;;;;;5088635;28;20205;-60
2020/12/04 11:37:41;;;;;;;13.02;8.82;;;7.60;91.60;;;;;;5089409;28;20187;-58
2020/12/04 11:40:08;;;;;;;16.38;11.25;;;7.50;91.50;;;;;;5088156;28;20187;-59
2020/12/04 11:42:37;;;;;;;16.55;10.15;;;7.60;92.20;;;;;;5083949;28;20206;-59
2020/12/04 11:45:04;;;;;;;12.32;9.00;;;7.40;92.20;;;;;;5087470;28;20260;-59
2020/12/04 11:47:29;;;;;;;13.20;10.00;;;7.20;92.20;;;;;;5090250;28;20181;-60
2020/12/04 11:49:55;;;;;;;17.63;12.20;;;7.40;92.20;;;;;;5088837;28;20739;-59
2020/12/04 11:52:21;;;;;;;12.83;9.40;;;7.40;92.00;;;;;;5086138;28;20180;-59
2020/12/04 11:54:47;;;;;;;14.17;9.57;;;7.60;92.10;;;;;;5087872;28;20326;-59
2020/12/04 11:57:13;;;;;;;15.05;10.60;;;7.70;91.80;;;;;;5087563;28;20461;-60
2020/12/04 11:59:39;;;;;;;13.20;9.55;;;7.80;91.50;;;;;;5086329;28;20191;-59
2020/12/04 12:02:09;;;;;;;16.70;11.37;;;7.70;92.00;;;;;;5088467;28;20180;-59
2020/12/04 12:04:34;;;;;;;14.20;11.95;;;7.70;91.60;;;;;;5087266;28;20466;-59
2020/12/04 12:07:00;;;;;;;21.33;12.37;;;7.60;91.60;;;;;;5086385;28;20242;-60
2020/12/04 12:09:26;;;;;;;15.03;11.47;;;7.50;91.90;;;;;;5088563;28;20204;-59
2020/12/04 12:11:51;;;;;;;14.37;11.47;;;7.60;92.10;;;;;;5086804;28;20191;-58
2020/12/04 12:14:17;;;;;;;15.30;10.73;;;7.50;91.80;;;;;;5087670;28;20672;-58
2020/12/04 12:16:46;;;;;;;16.30;11.27;;;7.50;91.90;;;;;;5085698;28;20184;-58
2020/12/04 12:19:13;;;;;;;16.92;11.77;;;7.10;92.20;;;;;;5085887;28;20191;-58
2020/12/04 12:21:42;;;;;;;15.48;10.90;;;7.00;92.00;;;;;;5086714;28;20872;-58
2020/12/04 12:24:08;;;;;;;14.38;10.27;;;7.30;92.50;;;;;;5084092;28;20779;-58
2020/12/04 12:26:34;;;;;;;14.98;10.75;;;7.20;92.30;;;;;;5085924;28;20645;-63
2020/12/04 12:29:00;;;;;;;13.40;10.50;;;7.50;92.30;;;;;;5085266;28;20219;-60
2020/12/04 12:31:26;;;;;;;9.82;8.82;;;7.40;92.00;;;;;;5086595;28;20187;-60
2020/12/04 12:33:52;;;;;;;17.43;12.17;;;7.50;92.40;;;;;;5085408;28;20644;-60
2020/12/04 12:36:18;;;;;;;24.90;11.03;;;7.60;92.40;;;;;;5085605;28;20536;-60
2020/12/04 12:38:43;;;;;;;14.70;9.48;;;7.30;92.50;;;;;;5085917;28;20931;-60
2020/12/04 12:41:09;;;;;;;12.70;9.97;;;7.30;92.70;;;;;;5088977;28;20220;-60
2020/12/04 12:43:38;;;;;;;11.60;9.37;;;7.40;92.50;;;;;;5086572;28;20187;-60
2020/12/04 12:46:03;;;;;;;13.45;10.15;;;7.50;92.10;;;;;;5083349;28;20586;-61